Terminal Aerodrome Forecast
Issued by NWS

Current Version | Previous Version | Text Only | Print | Product List | Glossary Off
Versions: 1 2 3 4 5 6 7 8 9 10 11 12 13 14 15 16 17 18 19 20 21 22 23 24

270
FTUS41 KRLX 270148 AAA
TAFCKB
TAF AMD
KCKB 270148Z 2702/2724 17007KT P6SM -SHRA SCT025 OVC045
      TEMPO 2702/2704 5SM SHRA OVC025
     FM270400 18005KT P6SM -SHRA SCT025 BKN040
     FM270800 22003KT P6SM BKN025
     FM271000 17003KT P6SM OVC015
     FM271500 22008KT P6SM BKN035=

USA.gov is the U.S. government's official web portal to all federal, state and local government web resources and services.